sensor_id;sensor_type;location;lat;lon;timestamp;P1;durP1;ratioP1;P2;durP2;ratioP2
16766;SDS011;8501;49.926;8.404;2022-11-20T00:00:51;36.10;;;18.47;;
16766;SDS011;8501;49.926;8.404;2022-11-20T00:03:17;39.30;;;18.77;;
16766;SDS011;8501;49.926;8.404;2022-11-20T00:05:43;40.40;;;18.37;;
16766;SDS011;8501;49.926;8.404;2022-11-20T00:08:09;35.60;;;17.80;;
16766;SDS011;8501;49.926;8.404;2022-11-20T00:10:38;38.70;;;17.73;;
16766;SDS011;8501;49.926;8.404;2022-11-20T00:13:04;35.90;;;17.03;;
16766;SDS011;8501;49.926;8.404;2022-11-20T00:15:30;35.77;;;17.63;;
16766;SDS011;8501;49.926;8.404;2022-11-20T00:17:56;36.70;;;17.23;;
16766;SDS011;8501;49.926;8.404;2022-11-20T00:20:22;41.80;;;17.60;;
16766;SDS011;8501;49.926;8.404;2022-11-20T00:22:47;38.40;;;17.57;;
16766;SDS011;8501;49.926;8.404;2022-11-20T00:25:14;36.77;;;17.53;;
16766;SDS011;8501;49.926;8.404;2022-11-20T00:27:39;36.80;;;17.80;;
16766;SDS011;8501;49.926;8.404;2022-11-20T00:30:05;33.77;;;17.37;;
16766;SDS011;8501;49.926;8.404;2022-11-20T00:32:32;37.77;;;17.60;;
16766;SDS011;8501;49.926;8.404;2022-11-20T00:34:57;37.77;;;17.13;;
16766;SDS011;8501;49.926;8.404;2022-11-20T00:37:23;36.93;;;17.43;;
16766;SDS011;8501;49.926;8.404;2022-11-20T00:39:48;35.87;;;16.80;;
16766;SDS011;8501;49.926;8.404;2022-11-20T00:42:14;37.53;;;17.20;;
16766;SDS011;8501;49.926;8.404;2022-11-20T00:44:39;38.43;;;17.90;;
16766;SDS011;8501;49.926;8.404;2022-11-20T00:47:05;37.93;;;17.40;;
16766;SDS011;8501;49.926;8.404;2022-11-20T00:49:30;39.87;;;18.13;;
16766;SDS011;8501;49.926;8.404;2022-11-20T00:51:56;41.37;;;17.50;;
16766;SDS011;8501;49.926;8.404;2022-11-20T00:54:21;38.77;;;17.53;;
16766;SDS011;8501;49.926;8.404;2022-11-20T00:56:47;40.37;;;17.90;;
16766;SDS011;8501;49.926;8.404;2022-11-20T00:59:12;37.67;;;17.80;;
16766;SDS011;8501;49.926;8.404;2022-11-20T01:01:38;42.67;;;17.67;;
16766;SDS011;8501;49.926;8.404;2022-11-20T01:04:04;39.33;;;18.20;;
16766;SDS011;8501;49.926;8.404;2022-11-20T01:06:30;38.97;;;18.33;;
16766;SDS011;8501;49.926;8.404;2022-11-20T01:08:58;39.53;;;18.03;;
16766;SDS011;8501;49.926;8.404;2022-11-20T01:11:26;39.70;;;18.33;;
16766;SDS011;8501;49.926;8.404;2022-11-20T01:13:54;38.57;;;17.80;;
16766;SDS011;8501;49.926;8.404;2022-11-20T01:16:25;39.10;;;18.23;;
16766;SDS011;8501;49.926;8.404;2022-11-20T01:18:52;39.37;;;18.53;;
16766;SDS011;8501;49.926;8.404;2022-11-20T01:21:20;35.00;;;17.07;;
16766;SDS011;8501;49.926;8.404;2022-11-20T01:23:48;41.57;;;19.07;;
16766;SDS011;8501;49.926;8.404;2022-11-20T01:26:15;37.27;;;17.40;;
16766;SDS011;8501;49.926;8.404;2022-11-20T01:28:43;43.27;;;18.83;;
16766;SDS011;8501;49.926;8.404;2022-11-20T01:31:19;36.77;;;17.37;;
16766;SDS011;8501;49.926;8.404;2022-11-20T01:33:51;38.63;;;18.13;;
16766;SDS011;8501;49.926;8.404;2022-11-20T01:36:18;39.77;;;18.73;;
16766;SDS011;8501;49.926;8.404;2022-11-20T01:38:44;39.27;;;18.40;;
16766;SDS011;8501;49.926;8.404;2022-11-20T01:41:11;39.73;;;18.47;;
16766;SDS011;8501;49.926;8.404;2022-11-20T01:43:58;41.70;;;18.53;;
16766;SDS011;8501;49.926;8.404;2022-11-20T01:46:24;41.17;;;19.00;;
16766;SDS011;8501;49.926;8.404;2022-11-20T01:48:54;41.17;;;18.57;;
16766;SDS011;8501;49.926;8.404;2022-11-20T01:51:46;38.23;;;17.90;;
16766;SDS011;8501;49.926;8.404;2022-11-20T01:54:19;40.33;;;18.93;;
16766;SDS011;8501;49.926;8.404;2022-11-20T01:56:48;40.73;;;18.17;;
16766;SDS011;8501;49.926;8.404;2022-11-20T01:59:17;39.67;;;18.03;;
16766;SDS011;8501;49.926;8.404;2022-11-20T02:01:44;41.43;;;18.70;;
16766;SDS011;8501;49.926;8.404;2022-11-20T02:04:10;40.43;;;18.33;;
16766;SDS011;8501;49.926;8.404;2022-11-20T02:06:42;39.60;;;18.77;;
16766;SDS011;8501;49.926;8.404;2022-11-20T02:09:12;43.20;;;19.53;;
16766;SDS011;8501;49.926;8.404;2022-11-20T02:11:39;42.60;;;19.83;;
16766;SDS011;8501;49.926;8.404;2022-11-20T02:14:05;44.80;;;20.20;;
16766;SDS011;8501;49.926;8.404;2022-11-20T02:16:33;41.73;;;18.83;;
16766;SDS011;8501;49.926;8.404;2022-11-20T02:19:02;42.37;;;19.27;;
16766;SDS011;8501;49.926;8.404;2022-11-20T02:21:40;42.43;;;19.33;;
16766;SDS011;8501;49.926;8.404;2022-11-20T02:24:12;41.33;;;19.37;;
16766;SDS011;8501;49.926;8.404;2022-11-20T02:29:11;44.73;;;19.87;;
16766;SDS011;8501;49.926;8.404;2022-11-20T02:31:40;42.93;;;19.33;;
16766;SDS011;8501;49.926;8.404;2022-11-20T02:34:08;42.90;;;19.23;;
16766;SDS011;8501;49.926;8.404;2022-11-20T02:36:34;47.13;;;20.57;;
16766;SDS011;8501;49.926;8.404;2022-11-20T02:39:02;40.60;;;19.40;;
16766;SDS011;8501;49.926;8.404;2022-11-20T02:41:34;40.50;;;19.50;;
16766;SDS011;8501;49.926;8.404;2022-11-20T02:44:01;41.90;;;20.20;;
16766;SDS011;8501;49.926;8.404;2022-11-20T02:46:28;43.57;;;19.47;;
16766;SDS011;8501;49.926;8.404;2022-11-20T02:48:54;42.50;;;20.37;;
16766;SDS011;8501;49.926;8.404;2022-11-20T02:51:19;44.00;;;19.93;;
16766;SDS011;8501;49.926;8.404;2022-11-20T02:53:45;45.07;;;19.47;;
16766;SDS011;8501;49.926;8.404;2022-11-20T02:56:11;43.63;;;19.27;;
16766;SDS011;8501;49.926;8.404;2022-11-20T02:58:36;45.87;;;19.87;;
16766;SDS011;8501;49.926;8.404;2022-11-20T03:01:02;45.47;;;21.07;;
16766;SDS011;8501;49.926;8.404;2022-11-20T03:03:27;45.07;;;20.03;;
16766;SDS011;8501;49.926;8.404;2022-11-20T03:05:53;44.30;;;19.77;;
16766;SDS011;8501;49.926;8.404;2022-11-20T03:08:18;40.13;;;18.80;;
16766;SDS011;8501;49.926;8.404;2022-11-20T03:10:44;43.37;;;19.67;;
16766;SDS011;8501;49.926;8.404;2022-11-20T03:13:09;40.57;;;18.87;;
16766;SDS011;8501;49.926;8.404;2022-11-20T03:15:35;44.63;;;20.57;;
16766;SDS011;8501;49.926;8.404;2022-11-20T03:18:01;46.07;;;20.20;;
16766;SDS011;8501;49.926;8.404;2022-11-20T03:20:27;43.90;;;19.33;;
16766;SDS011;8501;49.926;8.404;2022-11-20T03:22:53;46.40;;;19.93;;
16766;SDS011;8501;49.926;8.404;2022-11-20T03:25:19;45.77;;;20.93;;
16766;SDS011;8501;49.926;8.404;2022-11-20T03:27:45;44.67;;;19.63;;
16766;SDS011;8501;49.926;8.404;2022-11-20T03:30:11;47.10;;;20.17;;
16766;SDS011;8501;49.926;8.404;2022-11-20T03:32:37;45.67;;;19.43;;
16766;SDS011;8501;49.926;8.404;2022-11-20T03:35:02;47.97;;;19.93;;
16766;SDS011;8501;49.926;8.404;2022-11-20T03:37:28;47.10;;;21.10;;
16766;SDS011;8501;49.926;8.404;2022-11-20T03:39:54;44.27;;;20.63;;
16766;SDS011;8501;49.926;8.404;2022-11-20T03:42:19;48.70;;;20.33;;
16766;SDS011;8501;49.926;8.404;2022-11-20T03:45:04;42.87;;;19.23;;
16766;SDS011;8501;49.926;8.404;2022-11-20T03:47:30;44.77;;;19.47;;
16766;SDS011;8501;49.926;8.404;2022-11-20T03:49:55;47.07;;;19.80;;
16766;SDS011;8501;49.926;8.404;2022-11-20T03:52:21;51.43;;;19.97;;
16766;SDS011;8501;49.926;8.404;2022-11-20T03:54:46;45.57;;;19.63;;
16766;SDS011;8501;49.926;8.404;2022-11-20T03:57:12;46.07;;;20.67;;
16766;SDS011;8501;49.926;8.404;2022-11-20T03:59:37;45.47;;;19.93;;
16766;SDS011;8501;49.926;8.404;2022-11-20T04:02:03;46.93;;;20.17;;
16766;SDS011;8501;49.926;8.404;2022-11-20T04:04:28;44.57;;;20.23;;
16766;SDS011;8501;49.926;8.404;2022-11-20T04:06:54;43.30;;;19.73;;
16766;SDS011;8501;49.926;8.404;2022-11-20T04:09:19;44.67;;;19.30;;
16766;SDS011;8501;49.926;8.404;2022-11-20T04:11:45;46.07;;;19.73;;
16766;SDS011;8501;49.926;8.404;2022-11-20T04:14:12;48.20;;;20.40;;
16766;SDS011;8501;49.926;8.404;2022-11-20T04:16:39;45.63;;;20.20;;
16766;SDS011;8501;49.926;8.404;2022-11-20T04:19:05;47.43;;;20.67;;
16766;SDS011;8501;49.926;8.404;2022-11-20T04:21:34;45.33;;;19.53;;
16766;SDS011;8501;49.926;8.404;2022-11-20T04:23:59;42.83;;;18.93;;
16766;SDS011;8501;49.926;8.404;2022-11-20T04:26:26;48.57;;;19.73;;
16766;SDS011;8501;49.926;8.404;2022-11-20T04:28:52;43.37;;;18.23;;
16766;SDS011;8501;49.926;8.404;2022-11-20T04:31:23;42.60;;;18.40;;
16766;SDS011;8501;49.926;8.404;2022-11-20T04:33:53;43.43;;;19.57;;
16766;SDS011;8501;49.926;8.404;2022-11-20T04:38:45;43.63;;;18.43;;
16766;SDS011;8501;49.926;8.404;2022-11-20T04:41:17;44.80;;;19.20;;
16766;SDS011;8501;49.926;8.404;2022-11-20T04:43:48;45.63;;;19.33;;
16766;SDS011;8501;49.926;8.404;2022-11-20T04:46:15;46.07;;;18.77;;
16766;SDS011;8501;49.926;8.404;2022-11-20T04:48:41;45.10;;;19.10;;
16766;SDS011;8501;49.926;8.404;2022-11-20T04:51:07;46.47;;;19.53;;
16766;SDS011;8501;49.926;8.404;2022-11-20T04:53:32;43.67;;;19.43;;
16766;SDS011;8501;49.926;8.404;2022-11-20T04:56:05;46.17;;;19.10;;
16766;SDS011;8501;49.926;8.404;2022-11-20T04:58:32;41.83;;;19.40;;
16766;SDS011;8501;49.926;8.404;2022-11-20T05:01:05;47.90;;;19.73;;
16766;SDS011;8501;49.926;8.404;2022-11-20T05:03:31;47.07;;;19.57;;
16766;SDS011;8501;49.926;8.404;2022-11-20T05:06:00;39.57;;;18.30;;
16766;SDS011;8501;49.926;8.404;2022-11-20T05:08:27;45.47;;;18.80;;
16766;SDS011;8501;49.926;8.404;2022-11-20T05:10:53;48.13;;;19.13;;
16766;SDS011;8501;49.926;8.404;2022-11-20T05:13:18;44.23;;;19.03;;
16766;SDS011;8501;49.926;8.404;2022-11-20T05:15:44;43.60;;;18.73;;
16766;SDS011;8501;49.926;8.404;2022-11-20T05:18:09;45.40;;;18.30;;
16766;SDS011;8501;49.926;8.404;2022-11-20T05:20:35;44.50;;;18.90;;
16766;SDS011;8501;49.926;8.404;2022-11-20T05:23:01;49.03;;;20.23;;
16766;SDS011;8501;49.926;8.404;2022-11-20T05:25:26;42.10;;;19.03;;
16766;SDS011;8501;49.926;8.404;2022-11-20T05:27:52;47.30;;;19.37;;
16766;SDS011;8501;49.926;8.404;2022-11-20T05:30:18;45.43;;;19.10;;
16766;SDS011;8501;49.926;8.404;2022-11-20T05:32:44;47.53;;;19.43;;
16766;SDS011;8501;49.926;8.404;2022-11-20T05:35:09;45.33;;;18.70;;
16766;SDS011;8501;49.926;8.404;2022-11-20T05:37:35;46.33;;;19.83;;
16766;SDS011;8501;49.926;8.404;2022-11-20T05:40:00;48.50;;;19.37;;
16766;SDS011;8501;49.926;8.404;2022-11-20T05:42:26;47.07;;;18.43;;
16766;SDS011;8501;49.926;8.404;2022-11-20T05:45:01;45.13;;;18.63;;
16766;SDS011;8501;49.926;8.404;2022-11-20T05:47:30;48.10;;;19.73;;
16766;SDS011;8501;49.926;8.404;2022-11-20T05:49:58;46.00;;;18.30;;
16766;SDS011;8501;49.926;8.404;2022-11-20T05:52:24;42.83;;;18.43;;
16766;SDS011;8501;49.926;8.404;2022-11-20T05:54:52;49.70;;;19.27;;
16766;SDS011;8501;49.926;8.404;2022-11-20T05:57:19;48.63;;;19.40;;
16766;SDS011;8501;49.926;8.404;2022-11-20T05:59:44;51.57;;;20.37;;
16766;SDS011;8501;49.926;8.404;2022-11-20T06:02:10;49.13;;;19.13;;
16766;SDS011;8501;49.926;8.404;2022-11-20T06:04:35;48.73;;;19.00;;
16766;SDS011;8501;49.926;8.404;2022-11-20T06:07:01;49.83;;;20.13;;
16766;SDS011;8501;49.926;8.404;2022-11-20T06:09:27;46.73;;;19.00;;
16766;SDS011;8501;49.926;8.404;2022-11-20T06:11:52;49.60;;;20.07;;
16766;SDS011;8501;49.926;8.404;2022-11-20T06:14:18;46.10;;;19.13;;
16766;SDS011;8501;49.926;8.404;2022-11-20T06:16:43;47.13;;;18.93;;
16766;SDS011;8501;49.926;8.404;2022-11-20T06:19:09;45.17;;;18.67;;
16766;SDS011;8501;49.926;8.404;2022-11-20T06:21:35;46.87;;;19.03;;
16766;SDS011;8501;49.926;8.404;2022-11-20T06:24:00;46.83;;;19.07;;
16766;SDS011;8501;49.926;8.404;2022-11-20T06:26:26;47.43;;;19.80;;
16766;SDS011;8501;49.926;8.404;2022-11-20T06:28:52;41.47;;;18.47;;
16766;SDS011;8501;49.926;8.404;2022-11-20T06:31:20;48.23;;;20.17;;
16766;SDS011;8501;49.926;8.404;2022-11-20T06:33:46;44.17;;;19.13;;
16766;SDS011;8501;49.926;8.404;2022-11-20T06:36:13;44.63;;;18.97;;
16766;SDS011;8501;49.926;8.404;2022-11-20T06:38:39;46.60;;;19.00;;
16766;SDS011;8501;49.926;8.404;2022-11-20T06:41:06;43.37;;;18.17;;
16766;SDS011;8501;49.926;8.404;2022-11-20T06:43:35;47.27;;;20.00;;
16766;SDS011;8501;49.926;8.404;2022-11-20T06:46:00;45.87;;;19.33;;
16766;SDS011;8501;49.926;8.404;2022-11-20T06:48:27;44.50;;;19.00;;
16766;SDS011;8501;49.926;8.404;2022-11-20T06:50:53;49.97;;;21.43;;
16766;SDS011;8501;49.926;8.404;2022-11-20T06:53:19;48.23;;;19.47;;
16766;SDS011;8501;49.926;8.404;2022-11-20T06:55:45;49.73;;;20.13;;
16766;SDS011;8501;49.926;8.404;2022-11-20T06:58:14;51.40;;;19.97;;
16766;SDS011;8501;49.926;8.404;2022-11-20T07:00:41;52.47;;;21.07;;
16766;SDS011;8501;49.926;8.404;2022-11-20T07:03:08;47.77;;;19.13;;
16766;SDS011;8501;49.926;8.404;2022-11-20T07:05:35;45.67;;;19.30;;
16766;SDS011;8501;49.926;8.404;2022-11-20T07:08:01;49.10;;;20.60;;
16766;SDS011;8501;49.926;8.404;2022-11-20T07:10:28;51.83;;;21.47;;
16766;SDS011;8501;49.926;8.404;2022-11-20T07:12:53;47.93;;;20.63;;
16766;SDS011;8501;49.926;8.404;2022-11-20T07:15:20;48.53;;;20.60;;
16766;SDS011;8501;49.926;8.404;2022-11-20T07:17:47;59.97;;;23.50;;
16766;SDS011;8501;49.926;8.404;2022-11-20T07:20:13;52.00;;;22.83;;
16766;SDS011;8501;49.926;8.404;2022-11-20T07:22:39;53.57;;;22.30;;
16766;SDS011;8501;49.926;8.404;2022-11-20T07:25:05;49.87;;;20.23;;
16766;SDS011;8501;49.926;8.404;2022-11-20T07:27:31;53.07;;;23.50;;
16766;SDS011;8501;49.926;8.404;2022-11-20T07:29:56;50.40;;;21.20;;
16766;SDS011;8501;49.926;8.404;2022-11-20T07:32:22;50.20;;;20.87;;
16766;SDS011;8501;49.926;8.404;2022-11-20T07:34:47;51.97;;;21.07;;
16766;SDS011;8501;49.926;8.404;2022-11-20T07:37:13;43.17;;;18.63;;
16766;SDS011;8501;49.926;8.404;2022-11-20T07:39:39;43.97;;;18.43;;
16766;SDS011;8501;49.926;8.404;2022-11-20T07:42:08;46.57;;;18.30;;
16766;SDS011;8501;49.926;8.404;2022-11-20T07:44:34;47.37;;;18.63;;
16766;SDS011;8501;49.926;8.404;2022-11-20T07:47:00;52.67;;;21.73;;
16766;SDS011;8501;49.926;8.404;2022-11-20T07:49:26;50.07;;;21.20;;
16766;SDS011;8501;49.926;8.404;2022-11-20T07:51:52;43.67;;;19.73;;
16766;SDS011;8501;49.926;8.404;2022-11-20T07:54:21;43.17;;;19.90;;
16766;SDS011;8501;49.926;8.404;2022-11-20T07:56:47;45.33;;;19.53;;
16766;SDS011;8501;49.926;8.404;2022-11-20T07:59:15;45.23;;;19.60;;
16766;SDS011;8501;49.926;8.404;2022-11-20T08:01:41;43.40;;;19.30;;
16766;SDS011;8501;49.926;8.404;2022-11-20T08:04:07;50.07;;;20.67;;
16766;SDS011;8501;49.926;8.404;2022-11-20T08:06:34;47.93;;;20.80;;
16766;SDS011;8501;49.926;8.404;2022-11-20T08:09:00;46.13;;;20.53;;
16766;SDS011;8501;49.926;8.404;2022-11-20T08:11:25;51.13;;;21.73;;
16766;SDS011;8501;49.926;8.404;2022-11-20T08:14:10;43.03;;;19.00;;
16766;SDS011;8501;49.926;8.404;2022-11-20T08:16:42;47.73;;;19.87;;
16766;SDS011;8501;49.926;8.404;2022-11-20T08:19:09;47.50;;;21.40;;
16766;SDS011;8501;49.926;8.404;2022-11-20T08:21:35;52.53;;;22.40;;
16766;SDS011;8501;49.926;8.404;2022-11-20T08:24:00;46.00;;;20.70;;
16766;SDS011;8501;49.926;8.404;2022-11-20T08:26:26;50.33;;;21.63;;
16766;SDS011;8501;49.926;8.404;2022-11-20T08:28:55;57.03;;;25.47;;
16766;SDS011;8501;49.926;8.404;2022-11-20T08:31:22;46.60;;;20.40;;
16766;SDS011;8501;49.926;8.404;2022-11-20T08:33:48;49.63;;;20.40;;
16766;SDS011;8501;49.926;8.404;2022-11-20T08:36:14;70.70;;;39.20;;
16766;SDS011;8501;49.926;8.404;2022-11-20T08:38:40;63.67;;;36.60;;
16766;SDS011;8501;49.926;8.404;2022-11-20T08:41:05;53.60;;;29.30;;
16766;SDS011;8501;49.926;8.404;2022-11-20T08:43:52;54.47;;;23.47;;
16766;SDS011;8501;49.926;8.404;2022-11-20T08:46:21;51.73;;;21.83;;
16766;SDS011;8501;49.926;8.404;2022-11-20T08:48:48;48.30;;;21.23;;
16766;SDS011;8501;49.926;8.404;2022-11-20T08:51:13;49.87;;;22.13;;
16766;SDS011;8501;49.926;8.404;2022-11-20T08:53:39;46.33;;;20.03;;
16766;SDS011;8501;49.926;8.404;2022-11-20T08:56:05;47.20;;;20.20;;
16766;SDS011;8501;49.926;8.404;2022-11-20T08:58:31;47.97;;;22.43;;
16766;SDS011;8501;49.926;8.404;2022-11-20T09:00:57;50.30;;;22.83;;
16766;SDS011;8501;49.926;8.404;2022-11-20T09:03:22;48.30;;;20.83;;
16766;SDS011;8501;49.926;8.404;2022-11-20T09:05:48;49.10;;;20.30;;
16766;SDS011;8501;49.926;8.404;2022-11-20T09:08:13;43.67;;;19.90;;
16766;SDS011;8501;49.926;8.404;2022-11-20T09:10:39;45.50;;;19.67;;
16766;SDS011;8501;49.926;8.404;2022-11-20T09:13:05;46.60;;;19.53;;
16766;SDS011;8501;49.926;8.404;2022-11-20T09:15:30;43.67;;;20.03;;
16766;SDS011;8501;49.926;8.404;2022-11-20T09:17:57;58.03;;;26.03;;
16766;SDS011;8501;49.926;8.404;2022-11-20T09:20:25;52.27;;;22.20;;
16766;SDS011;8501;49.926;8.404;2022-11-20T09:22:51;49.80;;;21.53;;
16766;SDS011;8501;49.926;8.404;2022-11-20T09:25:17;49.80;;;23.37;;
16766;SDS011;8501;49.926;8.404;2022-11-20T09:27:43;50.00;;;22.10;;
16766;SDS011;8501;49.926;8.404;2022-11-20T09:30:11;45.13;;;20.47;;
16766;SDS011;8501;49.926;8.404;2022-11-20T09:32:41;44.97;;;20.33;;
16766;SDS011;8501;49.926;8.404;2022-11-20T09:35:07;48.47;;;20.37;;
16766;SDS011;8501;49.926;8.404;2022-11-20T09:37:33;48.33;;;20.80;;
16766;SDS011;8501;49.926;8.404;2022-11-20T09:39:58;47.47;;;21.10;;
16766;SDS011;8501;49.926;8.404;2022-11-20T09:42:30;44.67;;;20.67;;
16766;SDS011;8501;49.926;8.404;2022-11-20T09:53:11;49.27;;;19.77;;
16766;SDS011;8501;49.926;8.404;2022-11-20T09:55:40;43.57;;;20.10;;
16766;SDS011;8501;49.926;8.404;2022-11-20T09:58:06;43.70;;;19.33;;
16766;SDS011;8501;49.926;8.404;2022-11-20T10:00:37;42.10;;;19.17;;
16766;SDS011;8501;49.926;8.404;2022-11-20T10:03:06;45.43;;;20.63;;
16766;SDS011;8501;49.926;8.404;2022-11-20T10:05:43;45.07;;;21.83;;
16766;SDS011;8501;49.926;8.404;2022-11-20T10:08:22;41.53;;;19.30;;
16766;SDS011;8501;49.926;8.404;2022-11-20T10:19:13;43.87;;;19.77;;
16766;SDS011;8501;49.926;8.404;2022-11-20T10:21:55;44.50;;;19.83;;
16766;SDS011;8501;49.926;8.404;2022-11-20T10:24:33;45.53;;;19.47;;
16766;SDS011;8501;49.926;8.404;2022-11-20T10:30:13;41.03;;;18.53;;
16766;SDS011;8501;49.926;8.404;2022-11-20T10:32:42;43.80;;;18.63;;
16766;SDS011;8501;49.926;8.404;2022-11-20T10:35:20;37.17;;;17.30;;
16766;SDS011;8501;49.926;8.404;2022-11-20T10:38:00;37.40;;;17.50;;
16766;SDS011;8501;49.926;8.404;2022-11-20T10:40:38;38.53;;;17.60;;
16766;SDS011;8501;49.926;8.404;2022-11-20T10:43:09;40.03;;;18.07;;
16766;SDS011;8501;49.926;8.404;2022-11-20T10:45:50;36.83;;;18.40;;
16766;SDS011;8501;49.926;8.404;2022-11-20T10:48:23;37.20;;;17.80;;
16766;SDS011;8501;49.926;8.404;2022-11-20T10:56:17;38.63;;;18.70;;
16766;SDS011;8501;49.926;8.404;2022-11-20T11:01:56;39.63;;;17.70;;
16766;SDS011;8501;49.926;8.404;2022-11-20T11:07:04;45.97;;;20.30;;
16766;SDS011;8501;49.926;8.404;2022-11-20T11:09:53;45.80;;;20.90;;
16766;SDS011;8501;49.926;8.404;2022-11-20T11:12:21;44.63;;;21.70;;
16766;SDS011;8501;49.926;8.404;2022-11-20T11:14:50;45.77;;;21.20;;
16766;SDS011;8501;49.926;8.404;2022-11-20T11:17:28;40.73;;;19.40;;
16766;SDS011;8501;49.926;8.404;2022-11-20T11:22:29;34.77;;;16.87;;
16766;SDS011;8501;49.926;8.404;2022-11-20T11:24:56;35.53;;;16.57;;
16766;SDS011;8501;49.926;8.404;2022-11-20T11:27:22;44.47;;;25.33;;
16766;SDS011;8501;49.926;8.404;2022-11-20T11:29:48;35.60;;;17.20;;
16766;SDS011;8501;49.926;8.404;2022-11-20T11:32:15;32.63;;;16.83;;
16766;SDS011;8501;49.926;8.404;2022-11-20T11:34:57;87.23;;;52.43;;
16766;SDS011;8501;49.926;8.404;2022-11-20T11:37:24;43.57;;;24.53;;
16766;SDS011;8501;49.926;8.404;2022-11-20T11:39:54;32.30;;;16.70;;
16766;SDS011;8501;49.926;8.404;2022-11-20T11:42:19;31.33;;;15.20;;
16766;SDS011;8501;49.926;8.404;2022-11-20T11:44:46;44.73;;;21.30;;
16766;SDS011;8501;49.926;8.404;2022-11-20T11:47:52;47.77;;;22.43;;
16766;SDS011;8501;49.926;8.404;2022-11-20T11:50:20;42.27;;;20.93;;
16766;SDS011;8501;49.926;8.404;2022-11-20T12:01:11;37.17;;;18.23;;
16766;SDS011;8501;49.926;8.404;2022-11-20T12:03:42;39.47;;;18.23;;
16766;SDS011;8501;49.926;8.404;2022-11-20T12:06:12;39.97;;;18.57;;
16766;SDS011;8501;49.926;8.404;2022-11-20T12:14:03;37.03;;;17.37;;
16766;SDS011;8501;49.926;8.404;2022-11-20T12:16:36;35.57;;;16.50;;
16766;SDS011;8501;49.926;8.404;2022-11-20T12:19:04;32.90;;;16.97;;
16766;SDS011;8501;49.926;8.404;2022-11-20T12:27:27;33.40;;;15.53;;
16766;SDS011;8501;49.926;8.404;2022-11-20T12:30:04;31.50;;;15.47;;
16766;SDS011;8501;49.926;8.404;2022-11-20T13:01:00;27.80;;;14.60;;
16766;SDS011;8501;49.926;8.404;2022-11-20T13:03:36;31.67;;;15.47;;
16766;SDS011;8501;49.926;8.404;2022-11-20T13:06:11;32.63;;;15.53;;
16766;SDS011;8501;49.926;8.404;2022-11-20T13:08:41;29.87;;;15.80;;
16766;SDS011;8501;49.926;8.404;2022-11-20T13:11:17;32.23;;;15.37;;
16766;SDS011;8501;49.926;8.404;2022-11-20T13:16:53;30.33;;;15.37;;
16766;SDS011;8501;49.926;8.404;2022-11-20T13:19:34;29.70;;;15.10;;
16766;SDS011;8501;49.926;8.404;2022-11-20T13:22:00;33.63;;;16.20;;
16766;SDS011;8501;49.926;8.404;2022-11-20T13:24:27;33.00;;;15.77;;
16766;SDS011;8501;49.926;8.404;2022-11-20T13:29:33;30.07;;;15.87;;
16766;SDS011;8501;49.926;8.404;2022-11-20T13:34:31;35.50;;;16.67;;
16766;SDS011;8501;49.926;8.404;2022-11-20T13:36:57;37.63;;;17.90;;
16766;SDS011;8501;49.926;8.404;2022-11-20T13:39:35;34.77;;;17.20;;
16766;SDS011;8501;49.926;8.404;2022-11-20T13:42:02;35.57;;;17.27;;
16766;SDS011;8501;49.926;8.404;2022-11-20T13:44:38;34.13;;;17.97;;
16766;SDS011;8501;49.926;8.404;2022-11-20T13:47:23;34.37;;;17.70;;
16766;SDS011;8501;49.926;8.404;2022-11-20T13:49:53;32.87;;;16.63;;
16766;SDS011;8501;49.926;8.404;2022-11-20T13:52:37;36.07;;;16.50;;
16766;SDS011;8501;49.926;8.404;2022-11-20T13:55:13;33.97;;;16.60;;
16766;SDS011;8501;49.926;8.404;2022-11-20T13:57:59;35.77;;;17.17;;
16766;SDS011;8501;49.926;8.404;2022-11-20T14:00:27;38.07;;;18.30;;
16766;SDS011;8501;49.926;8.404;2022-11-20T14:05:31;34.53;;;16.53;;
16766;SDS011;8501;49.926;8.404;2022-11-20T14:08:00;36.87;;;17.53;;
16766;SDS011;8501;49.926;8.404;2022-11-20T14:10:30;36.60;;;17.63;;
16766;SDS011;8501;49.926;8.404;2022-11-20T14:12:56;36.37;;;17.13;;
16766;SDS011;8501;49.926;8.404;2022-11-20T14:15:32;38.17;;;17.33;;
16766;SDS011;8501;49.926;8.404;2022-11-20T14:17:59;35.27;;;17.33;;
16766;SDS011;8501;49.926;8.404;2022-11-20T14:23:02;38.27;;;17.57;;
16766;SDS011;8501;49.926;8.404;2022-11-20T14:25:30;34.33;;;16.80;;
16766;SDS011;8501;49.926;8.404;2022-11-20T14:27:59;37.33;;;17.67;;
16766;SDS011;8501;49.926;8.404;2022-11-20T14:30:35;34.63;;;17.80;;
16766;SDS011;8501;49.926;8.404;2022-11-20T14:33:10;35.77;;;17.13;;
16766;SDS011;8501;49.926;8.404;2022-11-20T14:35:40;36.40;;;18.57;;
16766;SDS011;8501;49.926;8.404;2022-11-20T14:38:14;37.10;;;18.57;;
16766;SDS011;8501;49.926;8.404;2022-11-20T14:40:42;40.87;;;19.27;;
16766;SDS011;8501;49.926;8.404;2022-11-20T14:43:18;43.67;;;19.93;;
16766;SDS011;8501;49.926;8.404;2022-11-20T14:46:02;37.03;;;18.57;;
16766;SDS011;8501;49.926;8.404;2022-11-20T14:48:44;44.27;;;21.87;;
16766;SDS011;8501;49.926;8.404;2022-11-20T14:51:22;46.23;;;21.97;;
16766;SDS011;8501;49.926;8.404;2022-11-20T14:53:51;43.70;;;21.23;;
16766;SDS011;8501;49.926;8.404;2022-11-20T14:56:23;45.37;;;20.50;;
16766;SDS011;8501;49.926;8.404;2022-11-20T14:58:58;51.37;;;25.07;;
16766;SDS011;8501;49.926;8.404;2022-11-20T15:01:28;51.40;;;25.10;;
16766;SDS011;8501;49.926;8.404;2022-11-20T15:04:05;51.00;;;24.40;;
16766;SDS011;8501;49.926;8.404;2022-11-20T15:06:35;47.07;;;22.73;;
16766;SDS011;8501;49.926;8.404;2022-11-20T15:09:02;43.47;;;22.20;;
16766;SDS011;8501;49.926;8.404;2022-11-20T15:11:32;43.73;;;23.03;;
16766;SDS011;8501;49.926;8.404;2022-11-20T15:14:02;50.03;;;24.90;;
16766;SDS011;8501;49.926;8.404;2022-11-20T15:16:31;48.93;;;22.40;;
16766;SDS011;8501;49.926;8.404;2022-11-20T15:18:58;46.10;;;23.43;;
16766;SDS011;8501;49.926;8.404;2022-11-20T15:21:24;55.00;;;29.27;;
16766;SDS011;8501;49.926;8.404;2022-11-20T15:23:50;60.23;;;32.37;;
16766;SDS011;8501;49.926;8.404;2022-11-20T15:26:23;62.10;;;33.83;;
16766;SDS011;8501;49.926;8.404;2022-11-20T15:28:51;62.57;;;33.10;;
16766;SDS011;8501;49.926;8.404;2022-11-20T15:31:21;63.33;;;32.13;;
16766;SDS011;8501;49.926;8.404;2022-11-20T15:33:48;56.47;;;30.07;;
16766;SDS011;8501;49.926;8.404;2022-11-20T15:36:14;52.77;;;27.20;;
16766;SDS011;8501;49.926;8.404;2022-11-20T15:38:40;55.83;;;26.60;;
16766;SDS011;8501;49.926;8.404;2022-11-20T15:41:05;54.37;;;26.47;;
16766;SDS011;8501;49.926;8.404;2022-11-20T15:43:31;51.70;;;25.30;;
16766;SDS011;8501;49.926;8.404;2022-11-20T15:46:01;49.93;;;25.30;;
16766;SDS011;8501;49.926;8.404;2022-11-20T15:48:37;50.03;;;25.00;;
16766;SDS011;8501;49.926;8.404;2022-11-20T15:53:39;55.57;;;27.37;;
16766;SDS011;8501;49.926;8.404;2022-11-20T15:56:06;54.77;;;27.90;;
16766;SDS011;8501;49.926;8.404;2022-11-20T15:58:36;54.10;;;27.27;;
16766;SDS011;8501;49.926;8.404;2022-11-20T16:01:02;56.80;;;26.57;;
16766;SDS011;8501;49.926;8.404;2022-11-20T16:03:28;52.23;;;25.43;;
16766;SDS011;8501;49.926;8.404;2022-11-20T16:05:53;53.53;;;25.93;;
16766;SDS011;8501;49.926;8.404;2022-11-20T16:08:22;57.00;;;26.57;;
16766;SDS011;8501;49.926;8.404;2022-11-20T16:10:47;55.17;;;26.40;;
16766;SDS011;8501;49.926;8.404;2022-11-20T16:13:13;54.67;;;27.70;;
16766;SDS011;8501;49.926;8.404;2022-11-20T16:16:01;56.33;;;28.23;;
16766;SDS011;8501;49.926;8.404;2022-11-20T16:18:42;62.27;;;31.50;;
16766;SDS011;8501;49.926;8.404;2022-11-20T16:21:10;60.13;;;31.80;;
16766;SDS011;8501;49.926;8.404;2022-11-20T16:23:37;66.37;;;28.53;;